San Fernando, Trinidad and Tobago
Current Conditions -  °F | °C
As of 3:00 PM on Friday 28 Nov 2014 (Local Time) from TTPP Reporting Station
Few Clouds Few Clouds  
Wind Chill: 32°   Ceiling: Unl
Heat Index: 37°   Visibility: 6mi
Dew Point: 23°   Wind: 12mph
Humidity: 59%   Direction: 130°SE
Pressure: 29.83"   Gusts: NA
Location:  10.25°N, 61.46°W
Report Text: TTPP 281900Z 13010KT 9999 FEW016 32/23 Q1010 NOSIG
Loading
Personal Weather Stations






























Interactive Weather Map New forecast layout! Learn more

10-Day Weather Forecast

Advertisements
Track Severe Weather on mobile